createdAt,value
2018-02-18T00:00:05.388Z,0.50
2018-02-18T00:01:04.544Z,0.50
2018-02-18T00:02:04.820Z,0.50
2018-02-18T00:03:05.550Z,0.50
2018-02-18T00:04:05.270Z,0.50
2018-02-18T00:05:05.455Z,0.40
2018-02-18T00:06:04.889Z,0.50
2018-02-18T00:07:05.513Z,0.50
2018-02-18T00:08:04.730Z,0.50
2018-02-18T00:09:05.323Z,0.50
2018-02-18T00:10:05.091Z,0.50
2018-02-18T00:11:04.724Z,0.50
2018-02-18T00:12:05.282Z,0.40
2018-02-18T00:13:05.006Z,0.40
2018-02-18T00:14:04.955Z,0.40
2018-02-18T00:15:05.332Z,0.40
2018-02-18T00:16:05.492Z,0.50
2018-02-18T00:17:05.302Z,0.50
2018-02-18T00:18:05.005Z,0.50
2018-02-18T00:19:05.190Z,0.40
2018-02-18T00:20:05.516Z,0.40
2018-02-18T00:21:04.769Z,0.50
2018-02-18T00:22:04.656Z,0.40
2018-02-18T00:23:04.750Z,0.40
2018-02-18T00:24:04.733Z,0.50
2018-02-18T00:25:04.711Z,0.40
2018-02-18T00:26:04.642Z,0.50
2018-02-18T00:27:05.448Z,0.40
2018-02-18T00:28:05.313Z,0.50
2018-02-18T00:29:05.526Z,0.40
2018-02-18T00:30:05.183Z,0.40
2018-02-18T00:31:04.647Z,0.40
2018-02-18T00:32:05.049Z,0.40
2018-02-18T00:33:05.122Z,0.40
2018-02-18T00:34:04.917Z,0.40
2018-02-18T00:35:05.042Z,0.40
2018-02-18T00:36:04.755Z,0.40
2018-02-18T00:37:09.574Z,0.40
2018-02-18T00:38:05.392Z,0.40
2018-02-18T00:39:05.099Z,0.40
2018-02-18T00:40:04.933Z,0.40
2018-02-18T00:41:04.821Z,0.40
2018-02-18T00:42:05.217Z,0.40
2018-02-18T00:43:10.192Z,0.40
2018-02-18T00:44:05.217Z,0.40
2018-02-18T00:45:05.452Z,0.40
2018-02-18T00:46:04.903Z,0.40
2018-02-18T00:47:05.316Z,0.40
2018-02-18T00:48:04.821Z,0.40
2018-02-18T00:49:05.350Z,0.40
2018-02-18T00:50:05.161Z,0.40
2018-02-18T00:51:05.226Z,0.40
2018-02-18T00:52:04.695Z,0.40
2018-02-18T00:53:04.522Z,0.40
2018-02-18T00:54:05.413Z,0.40
2018-02-18T00:55:05.450Z,0.40
2018-02-18T00:56:04.950Z,0.40
2018-02-18T00:57:05.404Z,0.40
2018-02-18T00:58:04.770Z,0.40
2018-02-18T00:59:05.437Z,0.40
2018-02-18T01:00:04.913Z,0.40
2018-02-18T01:01:04.746Z,0.40
2018-02-18T01:02:05.026Z,0.40
2018-02-18T01:03:04.594Z,0.40
2018-02-18T01:04:05.294Z,0.40
2018-02-18T01:05:05.093Z,0.40
2018-02-18T01:06:04.991Z,0.40
2018-02-18T01:07:05.339Z,0.40
2018-02-18T01:08:06.509Z,0.40
2018-02-18T01:09:04.558Z,0.40
2018-02-18T01:10:05.440Z,0.40
2018-02-18T01:11:04.894Z,0.40
2018-02-18T01:12:05.382Z,0.40
2018-02-18T01:13:06.019Z,0.40
2018-02-18T01:14:05.163Z,0.40
2018-02-18T01:15:05.667Z,0.40
2018-02-18T01:16:04.764Z,0.40
2018-02-18T01:17:04.966Z,0.40
2018-02-18T01:18:04.631Z,0.40
2018-02-18T01:19:04.983Z,0.40
2018-02-18T01:20:05.500Z,0.40
2018-02-18T01:21:05.383Z,0.40
2018-02-18T01:22:04.680Z,0.40
2018-02-18T01:23:04.548Z,0.40
2018-02-18T01:24:05.320Z,0.40
2018-02-18T01:25:05.508Z,0.40
2018-02-18T01:26:05.369Z,0.40
2018-02-18T01:27:05.031Z,0.40
2018-02-18T01:28:05.096Z,0.40
2018-02-18T01:29:05.503Z,0.40
2018-02-18T01:30:05.512Z,0.40
2018-02-18T01:31:04.799Z,0.40
2018-02-18T01:32:05.552Z,0.40
2018-02-18T01:33:05.489Z,0.40
2018-02-18T01:34:05.395Z,0.40
2018-02-18T01:35:04.841Z,0.40
2018-02-18T01:36:04.924Z,0.40
2018-02-18T01:37:05.307Z,0.40
2018-02-18T01:38:05.307Z,0.40
2018-02-18T01:39:05.368Z,0.40
2018-02-18T01:40:05.471Z,0.40
2018-02-18T01:41:04.965Z,0.40
2018-02-18T01:42:04.871Z,0.40
2018-02-18T01:43:05.293Z,0.40
2018-02-18T01:44:04.887Z,0.40
2018-02-18T01:45:04.785Z,0.40
2018-02-18T01:46:04.751Z,0.40
2018-02-18T01:47:05.072Z,0.40
2018-02-18T01:48:05.392Z,0.40
2018-02-18T01:49:04.610Z,0.40
2018-02-18T01:50:05.445Z,0.30
2018-02-18T01:51:05.390Z,0.30
2018-02-18T01:52:04.641Z,0.40
2018-02-18T01:53:04.650Z,0.30
2018-02-18T01:54:04.703Z,0.40
2018-02-18T01:55:05.494Z,0.30
2018-02-18T01:56:05.189Z,0.30
2018-02-18T01:57:04.913Z,0.30
2018-02-18T01:58:04.765Z,0.30
2018-02-18T01:59:05.230Z,0.30
2018-02-18T02:00:05.037Z,0.40
2018-02-18T02:01:04.683Z,0.40
2018-02-18T02:02:05.140Z,0.30
2018-02-18T02:03:04.971Z,0.30
2018-02-18T02:04:04.885Z,0.40
2018-02-18T02:05:05.495Z,0.30
2018-02-18T02:06:04.831Z,0.30
2018-02-18T02:07:04.884Z,0.30
2018-02-18T02:08:05.039Z,0.30
2018-02-18T02:09:04.952Z,0.30
2018-02-18T02:10:05.405Z,0.30
2018-02-18T02:11:05.185Z,0.30
2018-02-18T02:12:09.917Z,0.30
2018-02-18T02:13:04.712Z,0.30
2018-02-18T02:14:05.315Z,0.30
2018-02-18T02:15:04.858Z,0.30
2018-02-18T02:16:05.338Z,0.30
2018-02-18T02:17:05.564Z,0.30
2018-02-18T02:18:05.234Z,0.30
2018-02-18T02:19:05.556Z,0.30
2018-02-18T02:20:05.365Z,0.30
2018-02-18T02:21:04.956Z,0.30
2018-02-18T02:22:04.978Z,0.30
2018-02-18T02:23:05.442Z,0.30
2018-02-18T02:24:05.344Z,0.30
2018-02-18T02:25:05.355Z,0.30
2018-02-18T02:26:04.777Z,0.30
2018-02-18T02:27:04.609Z,0.30
2018-02-18T02:28:05.480Z,0.30
2018-02-18T02:29:05.495Z,0.30
2018-02-18T02:30:04.666Z,0.30
2018-02-18T02:31:05.452Z,0.30
2018-02-18T02:32:04.944Z,0.30
2018-02-18T02:33:05.019Z,0.30
2018-02-18T02:34:04.730Z,0.30
2018-02-18T02:35:04.650Z,0.30
2018-02-18T02:36:05.363Z,0.30
2018-02-18T02:37:04.854Z,0.30
2018-02-18T02:38:04.725Z,0.30
2018-02-18T02:39:04.878Z,0.30
2018-02-18T02:40:05.593Z,0.30
2018-02-18T02:41:05.171Z,0.30
2018-02-18T02:42:04.664Z,0.30
2018-02-18T02:43:04.769Z,0.30
2018-02-18T02:44:05.062Z,0.40
2018-02-18T02:45:05.031Z,0.30
2018-02-18T02:46:05.398Z,0.30
2018-02-18T02:47:05.538Z,0.30
2018-02-18T02:48:05.146Z,0.30
2018-02-18T02:49:04.925Z,0.30
2018-02-18T02:50:04.700Z,0.30
2018-02-18T02:51:05.345Z,0.30
2018-02-18T02:52:05.464Z,0.30
2018-02-18T02:53:05.535Z,0.30
2018-02-18T02:54:05.613Z,0.30
2018-02-18T02:55:05.445Z,0.30
2018-02-18T02:56:05.375Z,0.40
2018-02-18T02:57:05.147Z,0.40
2018-02-18T02:58:05.374Z,0.40
2018-02-18T02:59:05.391Z,0.40
2018-02-18T03:00:04.911Z,0.40
2018-02-18T03:01:04.684Z,0.40
2018-02-18T03:02:05.515Z,0.40
2018-02-18T03:03:04.981Z,0.40
2018-02-18T03:04:05.406Z,0.40
2018-02-18T03:05:04.743Z,0.40
2018-02-18T03:06:04.827Z,0.40
2018-02-18T03:07:05.265Z,0.40
2018-02-18T03:08:05.014Z,0.40
2018-02-18T03:09:05.422Z,0.40
2018-02-18T03:10:05.220Z,0.40
2018-02-18T03:11:05.010Z,0.40
2018-02-18T03:12:05.233Z,0.40
2018-02-18T03:13:05.246Z,0.40
2018-02-18T03:14:05.316Z,0.40
2018-02-18T03:15:05.106Z,0.40
2018-02-18T03:16:04.588Z,0.40
2018-02-18T03:17:05.175Z,0.40
2018-02-18T03:18:05.485Z,0.40
2018-02-18T03:19:04.929Z,0.40
2018-02-18T03:20:04.570Z,0.40
2018-02-18T03:21:05.092Z,0.40
2018-02-18T03:22:04.924Z,0.40
2018-02-18T03:23:04.886Z,0.40
2018-02-18T03:24:04.736Z,0.40
2018-02-18T03:25:04.720Z,0.40
2018-02-18T03:26:05.466Z,0.40
2018-02-18T03:27:05.346Z,0.40
2018-02-18T03:28:04.693Z,0.40
2018-02-18T03:29:05.336Z,0.40
2018-02-18T03:30:05.030Z,0.40
2018-02-18T03:31:05.440Z,0.40
2018-02-18T03:32:04.977Z,0.40
2018-02-18T03:33:04.647Z,0.40
2018-02-18T03:34:04.925Z,0.40
2018-02-18T03:35:05.363Z,0.40
2018-02-18T03:36:05.007Z,0.40
2018-02-18T03:37:05.399Z,0.40
2018-02-18T03:38:04.847Z,0.40
2018-02-18T03:39:04.627Z,0.40
2018-02-18T03:40:05.310Z,0.40
2018-02-18T03:41:05.012Z,0.40
2018-02-18T03:42:04.664Z,0.40
2018-02-18T03:43:05.362Z,0.40
2018-02-18T03:44:04.712Z,0.40
2018-02-18T03:45:04.786Z,0.40
2018-02-18T03:46:05.313Z,0.40
2018-02-18T03:47:05.553Z,0.40
2018-02-18T03:48:05.109Z,0.40
2018-02-18T03:49:04.885Z,0.40
2018-02-18T03:50:05.219Z,0.40
2018-02-18T03:51:05.026Z,0.40
2018-02-18T03:52:04.666Z,0.40
2018-02-18T03:53:05.437Z,0.40
2018-02-18T03:54:05.081Z,0.40
2018-02-18T03:55:04.926Z,0.40
2018-02-18T03:56:04.636Z,0.40
2018-02-18T03:57:05.093Z,0.40
2018-02-18T03:58:04.778Z,0.40
2018-02-18T03:59:05.358Z,0.40
2018-02-18T04:00:05.400Z,0.40
2018-02-18T04:01:04.942Z,0.40
2018-02-18T04:02:04.867Z,0.40
2018-02-18T04:03:05.377Z,0.40
2018-02-18T04:04:04.789Z,0.40
2018-02-18T04:05:05.429Z,0.40
2018-02-18T04:06:04.880Z,0.40
2018-02-18T04:07:04.692Z,0.40
2018-02-18T04:08:04.692Z,0.40
2018-02-18T04:09:05.561Z,0.40
2018-02-18T04:10:04.958Z,0.40
2018-02-18T04:11:05.463Z,0.40
2018-02-18T04:12:05.196Z,0.40
2018-02-18T04:13:04.744Z,0.40
2018-02-18T04:14:05.130Z,0.40
2018-02-18T04:15:04.603Z,0.40
2018-02-18T04:16:05.183Z,0.40
2018-02-18T04:17:05.058Z,0.40
2018-02-18T04:18:05.396Z,0.40
2018-02-18T04:19:05.616Z,0.40
2018-02-18T04:20:05.421Z,0.40
2018-02-18T04:21:04.913Z,0.40
2018-02-18T04:22:04.668Z,0.40
2018-02-18T04:23:05.378Z,0.40
2018-02-18T04:24:05.246Z,0.40
2018-02-18T04:25:04.776Z,0.40
2018-02-18T04:26:04.967Z,0.40
2018-02-18T04:27:05.491Z,0.40
2018-02-18T04:28:05.414Z,0.40
2018-02-18T04:29:05.149Z,0.40
2018-02-18T04:30:04.611Z,0.40
2018-02-18T04:31:05.236Z,0.40
2018-02-18T04:32:05.087Z,0.40
2018-02-18T04:33:05.359Z,0.40
2018-02-18T04:34:04.739Z,0.40
2018-02-18T04:35:10.111Z,0.40
2018-02-18T04:36:05.117Z,0.40
2018-02-18T04:37:04.799Z,0.40
2018-02-18T04:38:04.902Z,0.40
2018-02-18T04:39:04.726Z,0.40
2018-02-18T04:40:05.098Z,0.40
2018-02-18T04:41:05.209Z,0.40
2018-02-18T04:42:05.371Z,0.40
2018-02-18T04:43:05.173Z,0.40
2018-02-18T04:44:04.945Z,0.40
2018-02-18T04:45:04.607Z,0.40
2018-02-18T04:46:05.391Z,0.40
2018-02-18T04:47:04.658Z,0.40
2018-02-18T04:48:05.568Z,0.40
2018-02-18T04:49:05.547Z,0.40
2018-02-18T04:50:05.316Z,0.40
2018-02-18T04:51:05.137Z,0.40
2018-02-18T04:52:04.627Z,0.40
2018-02-18T04:53:04.753Z,0.40
2018-02-18T04:54:04.994Z,0.40
2018-02-18T04:55:04.916Z,0.40
2018-02-18T04:56:05.279Z,0.40
2018-02-18T04:57:04.814Z,0.40
2018-02-18T04:58:05.270Z,0.40
2018-02-18T04:59:10.051Z,0.40
2018-02-18T05:00:05.133Z,0.40
2018-02-18T05:01:05.070Z,0.40
2018-02-18T05:02:04.598Z,0.40
2018-02-18T05:03:05.201Z,0.40
2018-02-18T05:04:05.400Z,0.40
2018-02-18T05:05:04.899Z,0.40
2018-02-18T05:06:04.529Z,0.40
2018-02-18T05:07:04.610Z,0.40
2018-02-18T05:08:04.691Z,0.40
2018-02-18T05:09:04.614Z,0.40
2018-02-18T05:10:05.281Z,0.40
2018-02-18T05:11:04.745Z,0.40
2018-02-18T05:12:05.250Z,0.40
2018-02-18T05:13:04.670Z,0.40
2018-02-18T05:14:05.238Z,0.40
2018-02-18T05:15:05.083Z,0.40
2018-02-18T05:16:05.557Z,0.40
2018-02-18T05:17:05.122Z,0.40
2018-02-18T05:18:04.714Z,0.40
2018-02-18T05:19:04.675Z,0.40
2018-02-18T05:20:04.726Z,0.40
2018-02-18T05:21:05.142Z,0.40
2018-02-18T05:22:05.456Z,0.40
2018-02-18T05:23:04.761Z,0.40
2018-02-18T05:24:04.630Z,0.40
2018-02-18T05:25:05.742Z,0.40
2018-02-18T05:26:04.843Z,0.40
2018-02-18T05:27:04.774Z,0.40
2018-02-18T05:28:05.254Z,0.40
2018-02-18T05:29:04.603Z,0.40
2018-02-18T05:30:05.141Z,0.40
2018-02-18T05:31:04.792Z,0.40
2018-02-18T05:32:05.109Z,0.40
2018-02-18T05:33:05.035Z,0.40
2018-02-18T05:34:04.593Z,0.40
2018-02-18T05:35:05.475Z,0.40
2018-02-18T05:36:04.750Z,0.50
2018-02-18T05:37:05.178Z,0.50
2018-02-18T05:38:04.668Z,0.50
2018-02-18T05:39:04.529Z,0.40
2018-02-18T05:40:05.428Z,0.40
2018-02-18T05:41:04.810Z,0.50
2018-02-18T05:42:05.308Z,0.40
2018-02-18T05:43:04.789Z,0.40
2018-02-18T05:44:05.592Z,0.40
2018-02-18T05:45:05.358Z,0.50
2018-02-18T05:46:04.842Z,0.40
2018-02-18T05:47:04.793Z,0.40
2018-02-18T05:48:04.899Z,0.40
2018-02-18T05:49:04.519Z,0.40
2018-02-18T05:50:05.027Z,0.40
2018-02-18T05:51:04.844Z,0.40
2018-02-18T05:52:04.924Z,0.40
2018-02-18T05:53:04.739Z,0.40
2018-02-18T05:54:05.023Z,0.40
2018-02-18T05:55:05.514Z,0.40
2018-02-18T05:56:05.250Z,0.40
2018-02-18T05:57:05.065Z,0.40
2018-02-18T05:58:04.985Z,0.40
2018-02-18T05:59:04.615Z,0.40
2018-02-18T06:00:05.143Z,0.40
2018-02-18T06:01:05.450Z,0.40
2018-02-18T06:02:05.341Z,0.40
2018-02-18T06:03:05.449Z,0.40
2018-02-18T06:04:05.403Z,0.40
2018-02-18T06:05:05.016Z,0.40
2018-02-18T06:06:04.669Z,0.40
2018-02-18T06:07:04.647Z,0.40
2018-02-18T06:08:05.596Z,0.40
2018-02-18T06:09:05.168Z,0.40
2018-02-18T06:10:04.935Z,0.40
2018-02-18T06:11:04.699Z,0.40
2018-02-18T06:12:05.238Z,0.40
2018-02-18T06:13:04.780Z,0.40
2018-02-18T06:14:04.594Z,0.40
2018-02-18T06:15:06.586Z,0.40
2018-02-18T06:16:04.703Z,0.40
2018-02-18T06:17:04.755Z,0.40
2018-02-18T06:18:04.900Z,0.40
2018-02-18T06:19:05.384Z,0.40
2018-02-18T06:20:04.763Z,0.40
2018-02-18T06:21:05.343Z,0.40
2018-02-18T06:22:05.090Z,0.40
2018-02-18T06:23:04.707Z,0.40
2018-02-18T06:24:05.395Z,0.40
2018-02-18T06:25:05.170Z,0.40
2018-02-18T06:26:05.415Z,0.40
2018-02-18T06:27:05.208Z,0.40
2018-02-18T06:28:04.609Z,0.40
2018-02-18T06:29:05.381Z,0.40
2018-02-18T06:30:05.275Z,0.40
2018-02-18T06:31:04.757Z,0.40
2018-02-18T06:32:05.362Z,0.40
2018-02-18T06:33:05.193Z,0.40
2018-02-18T06:34:05.480Z,0.40
2018-02-18T06:35:05.522Z,0.40
2018-02-18T06:36:05.100Z,0.40
2018-02-18T06:37:05.188Z,0.40
2018-02-18T06:38:05.040Z,0.40
2018-02-18T06:39:05.270Z,0.40
2018-02-18T06:40:04.522Z,0.40
2018-02-18T06:41:05.224Z,0.40
2018-02-18T06:42:05.367Z,0.40
2018-02-18T06:43:05.002Z,0.40
2018-02-18T06:44:04.936Z,0.40
2018-02-18T06:45:04.842Z,0.40
2018-02-18T06:46:05.239Z,0.40
2018-02-18T06:47:06.264Z,0.40
2018-02-18T06:48:05.512Z,0.40
2018-02-18T06:49:05.236Z,0.40
2018-02-18T06:50:05.250Z,0.40
2018-02-18T06:51:04.743Z,0.40
2018-02-18T06:52:04.869Z,0.40
2018-02-18T06:53:05.078Z,0.40
2018-02-18T06:54:05.403Z,0.50
2018-02-18T06:55:05.280Z,0.50
2018-02-18T06:56:04.996Z,0.50
2018-02-18T06:57:05.296Z,0.50
2018-02-18T06:58:05.011Z,0.50
2018-02-18T06:59:04.772Z,0.50
2018-02-18T07:00:05.314Z,0.50
2018-02-18T07:01:04.985Z,0.50
2018-02-18T07:02:04.718Z,0.50
2018-02-18T07:03:05.608Z,0.50
2018-02-18T07:04:05.271Z,0.50
2018-02-18T07:05:04.917Z,0.60
2018-02-18T07:06:04.797Z,0.50
2018-02-18T07:07:05.404Z,0.60
2018-02-18T07:08:05.056Z,0.60
2018-02-18T07:09:05.313Z,0.60
2018-02-18T07:10:04.641Z,0.60
2018-02-18T07:11:05.000Z,0.60
2018-02-18T07:12:05.293Z,0.60
2018-02-18T07:13:05.239Z,0.60
2018-02-18T07:14:05.414Z,0.60
2018-02-18T07:15:05.301Z,0.60
2018-02-18T07:16:05.212Z,0.60
2018-02-18T07:17:05.240Z,0.60
2018-02-18T07:18:05.096Z,0.60
2018-02-18T07:19:05.471Z,0.70
2018-02-18T07:20:04.707Z,0.60
2018-02-18T07:21:05.430Z,0.70
2018-02-18T07:22:05.020Z,0.70
2018-02-18T07:23:05.367Z,0.70
2018-02-18T07:24:05.191Z,0.70
2018-02-18T07:25:05.418Z,0.70
2018-02-18T07:26:04.675Z,0.70
2018-02-18T07:27:05.064Z,0.70
2018-02-18T07:28:05.231Z,0.70
2018-02-18T07:29:05.333Z,0.70
2018-02-18T07:30:05.335Z,0.70
2018-02-18T07:31:05.037Z,0.70
2018-02-18T07:32:05.306Z,0.70
2018-02-18T07:33:05.107Z,0.70
2018-02-18T07:34:05.504Z,0.70
2018-02-18T07:35:05.057Z,0.80
2018-02-18T07:36:04.627Z,0.70
2018-02-18T07:37:05.106Z,0.80
2018-02-18T07:38:05.255Z,0.80
2018-02-18T07:39:04.935Z,0.80
2018-02-18T07:40:04.820Z,0.80
2018-02-18T07:41:04.859Z,0.80
2018-02-18T07:42:05.174Z,0.80
2018-02-18T07:43:04.779Z,0.80
2018-02-18T07:44:04.685Z,0.80
2018-02-18T07:45:04.885Z,0.80
2018-02-18T07:46:05.278Z,0.80
2018-02-18T07:47:05.215Z,0.80
2018-02-18T07:48:05.081Z,0.80
2018-02-18T07:49:05.460Z,0.80
2018-02-18T07:50:05.357Z,0.80
2018-02-18T07:51:04.757Z,0.80
2018-02-18T07:52:04.679Z,0.90
2018-02-18T07:53:05.241Z,0.90
2018-02-18T07:54:05.136Z,0.90
2018-02-18T07:55:04.882Z,0.90
2018-02-18T07:56:05.396Z,0.90
2018-02-18T07:57:05.161Z,0.90
2018-02-18T07:58:04.595Z,0.90
2018-02-18T07:59:05.374Z,0.90
2018-02-18T08:00:04.790Z,0.90
2018-02-18T08:01:04.755Z,0.90
2018-02-18T08:02:05.536Z,0.90
2018-02-18T08:03:05.231Z,0.90
2018-02-18T08:04:04.720Z,0.90
2018-02-18T08:05:05.019Z,0.90
2018-02-18T08:06:05.083Z,0.90
2018-02-18T08:07:05.532Z,0.90
2018-02-18T08:08:04.821Z,0.90
2018-02-18T08:09:05.513Z,1.00
2018-02-18T08:10:05.329Z,1.00
2018-02-18T08:11:05.293Z,1.00
2018-02-18T08:12:05.297Z,1.00
2018-02-18T08:13:04.941Z,1.00
2018-02-18T08:14:04.630Z,1.00
2018-02-18T08:15:05.549Z,1.00
2018-02-18T08:16:05.573Z,1.00
2018-02-18T08:17:05.328Z,1.00
2018-02-18T08:18:04.759Z,1.00
2018-02-18T08:19:05.291Z,1.00
2018-02-18T08:20:04.663Z,1.00
2018-02-18T08:21:05.120Z,1.10
2018-02-18T08:22:04.557Z,1.10
2018-02-18T08:23:05.167Z,1.10
2018-02-18T08:24:04.749Z,1.10
2018-02-18T08:25:04.803Z,1.10
2018-02-18T08:26:05.080Z,1.10
2018-02-18T08:27:04.839Z,1.10
2018-02-18T08:28:04.650Z,1.10
2018-02-18T08:29:05.686Z,1.10
2018-02-18T08:30:05.078Z,1.10
2018-02-18T08:31:09.751Z,1.10
2018-02-18T08:32:04.854Z,1.10
2018-02-18T08:33:05.250Z,1.10
2018-02-18T08:34:05.304Z,1.10
2018-02-18T08:35:09.671Z,1.10
2018-02-18T08:36:04.802Z,1.20
2018-02-18T08:37:04.683Z,1.20
2018-02-18T08:38:05.166Z,1.20
2018-02-18T08:39:04.631Z,1.20
2018-02-18T08:40:04.869Z,1.20
2018-02-18T08:41:05.358Z,1.20
2018-02-18T08:42:05.666Z,1.20
2018-02-18T08:43:05.315Z,1.20
2018-02-18T08:44:05.213Z,1.20
2018-02-18T08:45:05.128Z,1.20
2018-02-18T08:46:04.821Z,1.30
2018-02-18T08:47:04.724Z,1.30
2018-02-18T08:48:04.607Z,1.30
2018-02-18T08:49:05.522Z,1.30
2018-02-18T08:50:05.080Z,1.30
2018-02-18T08:51:05.081Z,1.30
2018-02-18T08:52:04.736Z,1.30
2018-02-18T08:53:05.412Z,1.30
2018-02-18T08:54:04.573Z,1.30
2018-02-18T08:55:04.954Z,1.30
2018-02-18T08:56:05.801Z,1.30
2018-02-18T08:57:04.731Z,1.30
2018-02-18T08:58:05.064Z,1.30
2018-02-18T08:59:04.559Z,1.30
2018-02-18T09:00:05.289Z,1.30
2018-02-18T09:01:04.640Z,1.40
2018-02-18T09:02:10.369Z,1.40
2018-02-18T09:03:05.090Z,1.40
2018-02-18T09:04:04.880Z,1.40
2018-02-18T09:05:05.511Z,1.40
2018-02-18T09:06:05.008Z,1.40
2018-02-18T09:07:04.901Z,1.40
2018-02-18T09:08:05.474Z,1.40
2018-02-18T09:09:04.615Z,1.50
2018-02-18T09:10:05.414Z,1.50
2018-02-18T09:11:04.620Z,1.50
2018-02-18T09:12:05.549Z,1.50
2018-02-18T09:13:04.941Z,1.50
2018-02-18T09:14:04.671Z,1.50
2018-02-18T09:15:04.873Z,1.50
2018-02-18T09:16:04.778Z,1.50
2018-02-18T09:17:05.428Z,1.50
2018-02-18T09:18:04.572Z,1.60
2018-02-18T09:19:04.998Z,1.60
2018-02-18T09:20:05.056Z,1.60
2018-02-18T09:21:05.538Z,1.60
2018-02-18T09:22:05.309Z,1.60
2018-02-18T09:23:05.284Z,1.70
2018-02-18T09:24:05.222Z,1.70
2018-02-18T09:25:05.649Z,1.70
2018-02-18T09:26:04.924Z,1.70
2018-02-18T09:27:04.673Z,1.70
2018-02-18T09:28:06.308Z,1.80
2018-02-18T09:29:04.819Z,1.80
2018-02-18T09:30:05.428Z,1.80
2018-02-18T09:31:05.461Z,1.80
2018-02-18T09:32:04.661Z,1.80
2018-02-18T09:33:05.421Z,1.90
2018-02-18T09:34:05.477Z,1.90
2018-02-18T09:35:05.154Z,1.90
2018-02-18T09:36:04.724Z,1.90
2018-02-18T09:37:04.830Z,1.90
2018-02-18T09:38:04.712Z,1.90
2018-02-18T09:39:04.702Z,1.90
2018-02-18T09:40:04.569Z,1.90
2018-02-18T09:41:05.023Z,1.90
2018-02-18T09:42:04.641Z,2.00
2018-02-18T09:43:05.136Z,2.00
2018-02-18T09:44:04.859Z,2.00
2018-02-18T09:45:09.926Z,2.00
2018-02-18T09:46:04.749Z,2.00
2018-02-18T09:47:05.532Z,2.00
2018-02-18T09:48:05.438Z,2.10
2018-02-18T09:49:05.393Z,2.10
2018-02-18T09:50:05.087Z,2.10
2018-02-18T09:51:04.882Z,2.10
2018-02-18T09:52:05.158Z,2.10
2018-02-18T09:53:04.610Z,2.10
2018-02-18T09:54:05.386Z,2.10
2018-02-18T09:55:05.328Z,2.20
2018-02-18T09:56:05.098Z,2.20
2018-02-18T09:57:04.606Z,2.20
2018-02-18T09:58:05.625Z,2.20
2018-02-18T09:59:05.311Z,2.20
2018-02-18T10:00:04.852Z,2.20
2018-02-18T10:01:05.491Z,2.20
2018-02-18T10:02:04.700Z,2.20
2018-02-18T10:03:05.452Z,2.30
2018-02-18T10:04:05.205Z,2.30
2018-02-18T10:05:04.846Z,2.30
2018-02-18T10:06:04.681Z,2.30
2018-02-18T10:07:05.354Z,2.30
2018-02-18T10:08:04.881Z,2.30
2018-02-18T10:09:05.201Z,2.30
2018-02-18T10:10:04.844Z,2.30
2018-02-18T10:11:05.279Z,2.30
2018-02-18T10:12:04.850Z,2.30
2018-02-18T10:13:04.699Z,2.30
2018-02-18T10:14:04.695Z,2.40
2018-02-18T10:15:05.489Z,2.40
2018-02-18T10:16:05.106Z,2.40
2018-02-18T10:17:05.089Z,2.40
2018-02-18T10:18:05.118Z,2.40
2018-02-18T10:19:04.626Z,2.40
2018-02-18T10:20:04.897Z,2.40
2018-02-18T10:21:05.141Z,2.40
2018-02-18T10:22:04.626Z,2.40
2018-02-18T10:23:05.132Z,2.40
2018-02-18T10:24:05.522Z,2.40
2018-02-18T10:25:05.473Z,2.40
2018-02-18T10:26:05.126Z,2.40
2018-02-18T10:27:04.692Z,2.40
2018-02-18T10:28:05.192Z,2.40
2018-02-18T10:29:04.958Z,2.40
2018-02-18T10:30:05.228Z,2.40
2018-02-18T10:31:04.952Z,2.40
2018-02-18T10:32:04.941Z,2.40
2018-02-18T10:33:04.637Z,2.40
2018-02-18T10:34:05.030Z,2.40
2018-02-18T10:35:04.611Z,2.40
2018-02-18T10:36:05.244Z,2.40
2018-02-18T10:37:04.561Z,2.40
2018-02-18T10:38:05.506Z,2.40
2018-02-18T10:39:04.629Z,2.40
2018-02-18T10:40:05.057Z,2.40
2018-02-18T10:41:05.385Z,2.50
2018-02-18T10:42:05.120Z,2.40
2018-02-18T10:43:05.392Z,2.40
2018-02-18T10:44:05.009Z,2.50
2018-02-18T10:45:05.023Z,2.50
2018-02-18T10:46:05.124Z,2.50
2018-02-18T10:47:05.479Z,2.50
2018-02-18T10:48:04.816Z,2.50
2018-02-18T10:49:05.375Z,2.50
2018-02-18T10:50:05.051Z,2.50
2018-02-18T10:51:04.551Z,2.50
2018-02-18T10:52:05.451Z,2.50
2018-02-18T10:53:04.636Z,2.50
2018-02-18T10:54:04.932Z,2.50
2018-02-18T10:55:04.959Z,2.50
2018-02-18T10:56:05.465Z,2.50
2018-02-18T10:57:04.957Z,2.50
2018-02-18T10:58:05.596Z,2.50
2018-02-18T10:59:05.536Z,2.60
2018-02-18T11:00:05.307Z,2.60
2018-02-18T11:01:05.162Z,2.60
2018-02-18T11:02:04.608Z,2.60
2018-02-18T11:03:04.855Z,2.60
2018-02-18T11:04:05.226Z,2.60
2018-02-18T11:05:05.559Z,2.60
2018-02-18T11:06:04.729Z,2.60
2018-02-18T11:07:04.618Z,2.60
2018-02-18T11:08:05.316Z,2.60
2018-02-18T11:09:05.471Z,2.60
2018-02-18T11:10:04.938Z,2.60
2018-02-18T11:11:04.937Z,2.60
2018-02-18T11:12:04.675Z,2.60
2018-02-18T11:13:05.291Z,2.60
2018-02-18T11:14:05.287Z,2.60
2018-02-18T11:15:05.359Z,2.60
2018-02-18T11:16:05.366Z,2.60
2018-02-18T11:17:04.907Z,2.60
2018-02-18T11:18:04.599Z,2.60
2018-02-18T11:19:04.796Z,2.60
2018-02-18T11:20:04.595Z,2.60
2018-02-18T11:21:04.675Z,2.60
2018-02-18T11:22:04.969Z,2.60
2018-02-18T11:23:05.354Z,2.60
2018-02-18T11:24:04.980Z,2.60
2018-02-18T11:25:05.242Z,2.60
2018-02-18T11:26:05.418Z,2.60
2018-02-18T11:27:04.950Z,2.60
2018-02-18T11:28:05.170Z,2.60
2018-02-18T11:29:04.681Z,2.60
2018-02-18T11:30:05.320Z,2.60
2018-02-18T11:31:05.374Z,2.60
2018-02-18T11:32:04.704Z,2.60
2018-02-18T11:33:04.777Z,2.60
2018-02-18T11:34:05.484Z,2.60
2018-02-18T11:35:05.536Z,2.60
2018-02-18T11:36:05.430Z,2.60
2018-02-18T11:37:05.535Z,2.60
2018-02-18T11:38:05.149Z,2.60
2018-02-18T11:39:05.513Z,2.70
2018-02-18T11:40:05.194Z,2.60
2018-02-18T11:41:04.574Z,2.60
2018-02-18T11:42:05.576Z,2.60
2018-02-18T11:43:04.651Z,2.60
2018-02-18T11:44:04.618Z,2.60
2018-02-18T11:45:05.466Z,2.60
2018-02-18T11:46:05.166Z,2.70
2018-02-18T11:47:04.703Z,2.70
2018-02-18T11:48:05.100Z,2.70
2018-02-18T11:49:04.878Z,2.60
2018-02-18T11:50:04.592Z,2.60
2018-02-18T11:51:05.548Z,2.60
2018-02-18T11:52:05.120Z,2.60
2018-02-18T11:53:05.384Z,2.60
2018-02-18T11:54:05.175Z,2.60
2018-02-18T11:55:04.935Z,2.60
2018-02-18T11:56:05.044Z,2.60
2018-02-18T11:57:04.906Z,2.60
2018-02-18T11:58:05.361Z,2.70
2018-02-18T11:59:05.136Z,2.70
2018-02-18T12:00:05.520Z,2.70
2018-02-18T12:01:05.141Z,2.70
2018-02-18T12:02:05.404Z,2.70
2018-02-18T12:03:04.952Z,2.70
2018-02-18T12:04:05.401Z,2.70
2018-02-18T12:05:05.416Z,2.70
2018-02-18T12:06:04.991Z,2.70
2018-02-18T12:07:05.264Z,2.70
2018-02-18T12:08:04.956Z,2.70
2018-02-18T12:09:04.938Z,2.70
2018-02-18T12:10:04.796Z,2.70
2018-02-18T12:11:05.389Z,2.70
2018-02-18T12:12:05.104Z,2.70
2018-02-18T12:13:05.385Z,2.70
2018-02-18T12:14:04.768Z,2.80
2018-02-18T12:15:04.892Z,2.80
2018-02-18T12:16:05.238Z,2.80
2018-02-18T12:17:04.640Z,2.80
2018-02-18T12:18:05.292Z,2.80
2018-02-18T12:19:04.986Z,2.80
2018-02-18T12:20:04.921Z,2.80
2018-02-18T12:21:04.636Z,2.80
2018-02-18T12:22:06.094Z,2.80
2018-02-18T12:23:05.065Z,2.80
2018-02-18T12:24:05.515Z,2.80
2018-02-18T12:25:05.056Z,2.90
2018-02-18T12:26:05.333Z,2.90
2018-02-18T12:27:04.897Z,2.90
2018-02-18T12:28:04.704Z,2.90
2018-02-18T12:29:05.374Z,2.90
2018-02-18T12:30:05.068Z,2.90
2018-02-18T12:31:05.433Z,2.90
2018-02-18T12:32:04.906Z,3.00
2018-02-18T12:33:05.362Z,3.00
2018-02-18T12:34:05.011Z,3.00
2018-02-18T12:35:04.646Z,3.00
2018-02-18T12:36:05.438Z,3.00
2018-02-18T12:37:05.246Z,3.00
2018-02-18T12:38:04.899Z,3.00
2018-02-18T12:39:05.077Z,3.00
2018-02-18T12:40:05.004Z,3.00
2018-02-18T12:41:05.397Z,3.00
2018-02-18T12:42:05.164Z,3.10
2018-02-18T12:43:04.600Z,3.10
2018-02-18T12:44:04.644Z,3.10
2018-02-18T12:45:05.070Z,3.10
2018-02-18T12:46:04.672Z,3.10
2018-02-18T12:47:05.470Z,3.10
2018-02-18T12:48:05.070Z,3.10
2018-02-18T12:49:04.789Z,3.10
2018-02-18T12:50:05.234Z,3.20
2018-02-18T12:51:05.572Z,3.20
2018-02-18T12:52:04.687Z,3.20
2018-02-18T12:53:05.031Z,3.20
2018-02-18T12:54:05.353Z,3.20
2018-02-18T12:55:05.080Z,3.20
2018-02-18T12:56:04.651Z,3.20
2018-02-18T12:57:05.533Z,3.20
2018-02-18T12:58:04.879Z,3.20
2018-02-18T12:59:05.100Z,3.20
2018-02-18T13:00:05.016Z,3.20
2018-02-18T13:01:05.619Z,3.20
2018-02-18T13:02:05.472Z,3.20
2018-02-18T13:03:04.716Z,3.20
2018-02-18T13:04:05.457Z,3.20
2018-02-18T13:05:05.267Z,3.20
2018-02-18T13:06:05.012Z,3.20
2018-02-18T13:07:04.880Z,3.20
2018-02-18T13:08:04.887Z,3.20
2018-02-18T13:09:04.861Z,3.20
2018-02-18T13:10:05.611Z,3.20
2018-02-18T13:11:04.708Z,3.20
2018-02-18T13:12:05.061Z,3.20
2018-02-18T13:13:05.523Z,3.20
2018-02-18T13:14:05.029Z,3.20
2018-02-18T13:15:05.167Z,3.20
2018-02-18T13:16:05.158Z,3.20
2018-02-18T13:17:05.302Z,3.20
2018-02-18T13:18:05.010Z,3.20